Time;durP1;ratioP1;P1;durP2;ratioP2;P2;SDS_P1;SDS_P2;PMS_P1;PMS_P2;Temp;Humidity;BMP_temperature;BMP_pressure;BME280_temperature;BME280_humidity;BME280_pressure;Samples;Min_cycle;Max_cycle;Signal;HPM_P1;HPM_P2
2022/11/20 00:01:33;;;;;;;17.30;10.63;;;;;;;-0.47;68.60;98459.03;5020734;28;20958;-80
2022/11/20 00:03:59;;;;;;;16.50;9.77;;;;;;;-0.35;68.85;98460.16;5022601;28;20385;-80
2022/11/20 00:06:26;;;;;;;15.65;9.73;;;;;;;-0.32;68.01;98444.84;5020550;28;20042;-80
2022/11/20 00:08:55;;;;;;;16.80;10.75;;;;;;;-0.32;67.74;98439.59;5023111;28;20029;-81
2022/11/20 00:11:23;;;;;;;23.25;11.60;;;;;;;-0.31;67.43;98458.78;5016990;28;20036;-81
2022/11/20 00:13:51;;;;;;;17.98;10.88;;;;;;;-0.24;67.91;98452.56;5020923;28;20033;-81
2022/11/20 00:16:19;;;;;;;16.95;11.07;;;;;;;-0.28;67.81;98456.56;5000029;28;20037;-80
2022/11/20 00:18:45;;;;;;;16.77;11.10;;;;;;;-0.21;66.98;98435.66;5024987;28;20207;-81
2022/11/20 00:21:15;;;;;;;20.05;14.65;;;;;;;-0.14;66.79;98458.31;5019237;28;20037;-81
2022/11/20 00:23:42;;;;;;;30.55;21.23;;;;;;;-1.14;68.17;98427.94;5027348;28;20026;-81
2022/11/20 00:26:10;;;;;;;21.13;13.82;;;;;;;-0.83;68.58;98430.28;5015107;28;20079;-80
2022/11/20 00:28:35;;;;;;;19.20;12.38;;;;;;;-0.26;67.44;98451.13;5021188;28;20440;-81
2022/11/20 00:31:06;;;;;;;18.35;12.23;;;;;;;-0.19;67.17;98444.94;5021370;28;20037;-81
2022/11/20 00:33:31;;;;;;;19.67;11.55;;;;;;;-2.02;69.09;98435.03;5026459;28;20033;-80
2022/11/20 00:36:05;;;;;;;20.13;11.35;;;;;;;-2.04;71.67;98431.78;5005210;28;20059;-80
2022/11/20 00:38:31;;;;;;;20.00;13.20;;;;;;;-0.96;69.65;98438.78;5024230;28;20037;-80
2022/11/20 00:40:58;;;;;;;18.95;12.25;;;;;;;-0.66;67.66;98412.47;5020454;28;20113;-80
2022/11/20 00:43:24;;;;;;;19.67;11.77;;;;;;;-0.50;67.14;98431.38;5024247;28;20086;-80
2022/11/20 00:45:50;;;;;;;17.02;12.13;;;;;;;-0.42;67.34;98457.47;5016243;28;20029;-81
2022/11/20 00:48:15;;;;;;;14.57;9.75;;;;;;;-0.66;68.53;98457.84;5022872;28;20047;-80
2022/11/20 00:50:41;;;;;;;15.85;10.68;;;;;;;-0.37;67.26;98436.72;5021683;28;20061;-80
2022/11/20 00:53:07;;;;;;;20.00;11.55;;;;;;;-0.40;67.07;98431.06;5006418;28;20030;-81
2022/11/20 00:55:32;;;;;;;17.70;10.43;;;;;;;-0.19;66.58;98441.50;5006124;28;20492;-80
2022/11/20 00:57:57;;;;;;;16.73;11.60;;;;;;;-0.21;66.75;98452.19;5003669;28;20438;-80
2022/11/20 01:00:23;;;;;;;20.88;13.05;;;;;;;-0.10;66.67;98451.69;5001069;28;20129;-80
2022/11/20 01:02:48;;;;;;;21.33;13.45;;;;;;;-0.21;65.89;98438.25;5016209;28;20095;-81
2022/11/20 01:05:13;;;;;;;23.50;13.40;;;;;;;-0.16;65.80;98454.25;5006595;28;20405;-81
2022/11/20 01:07:39;;;;;;;21.13;12.38;;;;;;;-0.45;66.35;98449.16;5016510;28;20030;-80
2022/11/20 01:10:05;;;;;;;21.42;13.50;;;;;;;-0.37;66.62;98430.69;5005129;28;20129;-81
2022/11/20 01:12:30;;;;;;;21.02;13.73;;;;;;;-0.38;66.94;98437.75;5001010;28;20083;-81
2022/11/20 01:14:55;;;;;;;21.63;12.43;;;;;;;-0.24;65.73;98430.81;5021047;28;20031;-81
2022/11/20 01:17:21;;;;;;;18.42;12.32;;;;;;;-0.27;66.48;98433.78;5022349;28;20366;-80
2022/11/20 01:19:50;;;;;;;17.33;11.43;;;;;;;-0.87;67.32;98431.63;5017859;28;20041;-80
2022/11/20 01:22:15;;;;;;;19.85;11.75;;;;;;;-2.87;68.23;98415.34;5018910;28;20061;-80
2022/11/20 01:24:40;;;;;;;21.77;11.27;;;;;;;-3.85;70.37;98424.69;5014512;28;20093;-80
2022/11/20 01:27:06;;;;;;;18.77;11.48;;;;;;;-3.17;73.70;98419.59;5016042;28;20057;-80
2022/11/20 01:29:31;;;;;;;21.70;11.93;;;;;;;-2.83;71.30;98405.34;4997092;28;20044;-80
2022/11/20 01:31:56;;;;;;;23.92;11.50;;;;;;;-4.03;72.34;98423.25;5001974;28;20132;-80
2022/11/20 01:34:22;;;;;;;21.15;12.07;;;;;;;-2.28;73.36;98396.25;4990522;28;20040;-81
2022/11/20 01:36:48;;;;;;;16.20;10.55;;;;;;;-1.38;69.88;98393.41;5026911;28;20067;-80
2022/11/20 01:39:16;;;;;;;17.15;10.45;;;;;;;-1.02;69.06;98389.78;5010267;28;20045;-81
2022/11/20 01:44:55;;;;;;;16.83;9.93;;;;;;;-1.19;68.92;98404.09;5028384;28;20094;-81
2022/11/20 01:47:27;;;;;;;16.42;9.23;;;;;;;-0.69;68.05;98395.31;5022410;28;20037;-81
2022/11/20 01:50:11;;;;;;;18.25;10.52;;;;;;;-0.55;66.99;98383.97;5024010;28;20113;-81
2022/11/20 01:52:48;;;;;;;17.70;9.35;;;;;;;-0.51;66.97;98406.19;5024651;28;20442;-81
2022/11/20 01:55:39;;;;;;;13.85;9.00;;;;;;;-0.38;65.95;98406.28;5024899;28;20080;-81
2022/11/20 01:58:05;;;;;;;14.07;8.85;;;;;;;-0.36;65.71;98395.59;5025645;28;20035;-81
2022/11/20 02:00:31;;;;;;;16.10;10.05;;;;;;;-0.59;66.02;98402.88;5025484;28;20456;-81
2022/11/20 02:03:00;;;;;;;13.02;9.90;;;;;;;-0.62;65.98;98396.19;5018621;28;20022;-81
2022/11/20 02:05:29;;;;;;;12.73;9.77;;;;;;;-0.74;66.60;98384.59;5026453;28;20030;-81
2022/11/20 02:07:57;;;;;;;16.83;9.48;;;;;;;-0.77;66.39;98396.28;5023835;28;20088;-80
2022/11/20 02:10:22;;;;;;;15.20;10.13;;;;;;;-0.81;66.97;98381.13;5023081;28;20083;-81
2022/11/20 02:15:33;;;;;;;13.32;8.63;;;;;;;-0.89;66.82;98371.56;5016121;28;21773;-81
2022/11/20 02:17:58;;;;;;;19.98;10.77;;;;;;;-0.74;66.93;98396.91;5022991;28;20108;-81
2022/11/20 02:20:24;;;;;;;13.93;9.10;;;;;;;-0.67;66.58;98388.09;5020663;28;20079;-81
2022/11/20 02:23:06;;;;;;;16.48;9.70;;;;;;;-0.85;66.23;98380.66;5021392;28;20117;-81
2022/11/20 02:25:34;;;;;;;16.88;10.23;;;;;;;-0.74;66.16;98400.31;5023171;28;20021;-81
2022/11/20 02:28:00;;;;;;;15.32;9.10;;;;;;;-0.75;66.61;98390.84;5021760;28;20026;-80
2022/11/20 02:30:26;;;;;;;15.05;9.45;;;;;;;-0.77;66.15;98396.28;5027997;28;20041;-81
2022/11/20 02:32:51;;;;;;;14.70;9.27;;;;;;;-0.90;65.84;98374.38;5007749;28;20038;-80
2022/11/20 02:35:19;;;;;;;15.48;9.10;;;;;;;-0.80;66.46;98387.97;4992925;28;20552;-80
2022/11/20 02:37:49;;;;;;;16.05;9.77;;;;;;;-0.79;66.04;98389.59;5024317;28;20132;-80
2022/11/20 02:40:14;;;;;;;15.57;9.88;;;;;;;-0.80;66.39;98395.81;5023116;28;20057;-80
2022/11/20 02:42:40;;;;;;;13.70;8.98;;;;;;;-0.74;66.28;98384.59;5014741;28;20461;-80
2022/11/20 02:45:06;;;;;;;12.60;9.18;;;;;;;-0.87;65.85;98355.66;5024175;28;21290;-81
2022/11/20 02:47:32;;;;;;;14.00;9.20;;;;;;;-0.90;65.99;98366.53;5023467;28;20481;-81
2022/11/20 02:49:57;;;;;;;14.70;9.38;;;;;;;-0.96;65.63;98378.53;5026158;28;20029;-81
2022/11/20 02:52:24;;;;;;;15.98;9.38;;;;;;;-0.77;66.28;98392.84;5025092;28;20029;-81
2022/11/20 02:54:49;;;;;;;16.65;10.38;;;;;;;-0.65;65.39;98391.31;5024481;28;20049;-81
2022/11/20 02:57:15;;;;;;;17.52;10.25;;;;;;;-0.67;64.91;98390.72;5022700;28;20083;-81
2022/11/20 02:59:40;;;;;;;17.20;10.10;;;;;;;-1.39;65.66;98371.66;5023843;28;20030;-81
2022/11/20 03:02:05;;;;;;;23.65;11.75;;;;;;;-4.29;69.56;98384.41;4989478;28;20045;-81
2022/11/20 03:04:31;;;;;;;17.33;10.85;;;;;;;-3.89;74.03;98360.03;5021929;28;21039;-80
2022/11/20 03:06:56;;;;;;;23.80;12.40;;;;;;;-3.55;70.93;98373.53;5024576;28;20033;-80
2022/11/20 03:09:22;;;;;;;16.52;10.10;;;;;;;-3.42;72.74;98384.22;5005698;28;20474;-80
2022/11/20 03:11:47;;;;;;;17.60;10.63;;;;;;;-3.36;69.50;98362.66;5022592;28;20048;-80
2022/11/20 03:14:13;;;;;;;22.45;11.57;;;;;;;-2.90;71.07;98363.47;5021822;28;20033;-81
2022/11/20 03:16:38;;;;;;;18.30;10.13;;;;;;;-1.91;70.33;98366.59;5022078;28;20068;-80
2022/11/20 03:19:03;;;;;;;16.23;9.82;;;;;;;-1.37;68.18;98353.97;5003865;28;20128;-81
2022/11/20 03:21:29;;;;;;;16.63;9.40;;;;;;;-1.21;66.59;98364.22;5025638;28;20480;-80
2022/11/20 03:23:55;;;;;;;17.70;10.25;;;;;;;-2.09;66.68;98362.72;5034094;28;20021;-81
2022/11/20 03:26:23;;;;;;;19.50;11.02;;;;;;;-1.82;69.23;98375.16;5006974;28;20035;-81
2022/11/20 03:28:57;;;;;;;16.00;9.50;;;;;;;-1.11;66.98;98382.22;5022563;28;20040;-81
2022/11/20 03:31:25;;;;;;;16.25;9.80;;;;;;;-1.03;67.12;98387.34;5024639;28;20032;-81
2022/11/20 03:33:51;;;;;;;15.70;9.30;;;;;;;-1.14;65.77;98356.41;5004934;28;20040;-81
2022/11/20 03:36:18;;;;;;;19.92;9.70;;;;;;;-1.06;66.53;98369.38;5023400;28;20048;-80
2022/11/20 03:38:43;;;;;;;13.90;8.98;;;;;;;-0.93;65.42;98364.28;5025362;28;20035;-81
2022/11/20 03:41:14;;;;;;;16.40;9.80;;;;;;;-0.90;65.82;98358.66;5028609;28;21355;-81
2022/11/20 03:43:40;;;;;;;14.18;8.60;;;;;;;-0.75;65.91;98356.78;5028399;28;20021;-81
2022/11/20 03:46:07;;;;;;;17.55;10.02;;;;;;;-0.96;65.25;98352.34;5029116;28;20035;-81
2022/11/20 03:48:33;;;;;;;16.02;8.93;;;;;;;-0.91;65.09;98341.31;5028581;28;20059;-81
2022/11/20 03:51:12;;;;;;;14.85;9.18;;;;;;;-1.44;67.45;98349.66;5022314;28;20029;-81
2022/11/20 03:53:38;;;;;;;16.38;10.25;;;;;;;-1.46;65.45;98344.59;5030978;28;20048;-81
2022/11/20 03:56:04;;;;;;;18.52;10.55;;;;;;;-2.19;69.15;98343.88;5025323;28;20048;-81
2022/11/20 03:58:30;;;;;;;17.45;9.82;;;;;;;-1.59;68.02;98324.31;5027490;28;20045;-81
2022/11/20 04:00:55;;;;;;;21.27;11.50;;;;;;;-2.23;67.58;98326.94;5007880;28;20044;-80
2022/11/20 04:03:21;;;;;;;23.50;13.35;;;;;;;-4.08;69.48;98324.72;5025574;28;20033;-80
2022/11/20 04:05:46;;;;;;;22.27;11.15;;;;;;;-3.98;72.82;98308.91;5019183;28;20041;-80
2022/11/20 04:08:11;;;;;;;21.33;11.40;;;;;;;-2.45;70.61;98303.34;5022880;28;20079;-81
2022/11/20 04:10:37;;;;;;;17.95;11.05;;;;;;;-3.30;68.13;98333.25;5018750;28;20029;-80
2022/11/20 04:13:03;;;;;;;16.73;10.35;;;;;;;-3.64;72.47;98337.22;5017462;28;20045;-80
2022/11/20 04:15:28;;;;;;;20.75;11.90;;;;;;;-2.43;70.16;98300.53;5020490;28;20033;-81
2022/11/20 04:17:54;;;;;;;20.58;10.52;;;;;;;-1.58;67.91;98341.66;5023415;28;20037;-80
2022/11/20 04:20:20;;;;;;;17.88;10.07;;;;;;;-1.57;66.43;98313.66;5016059;28;20129;-81
2022/11/20 04:22:46;;;;;;;17.23;8.95;;;;;;;-2.21;68.15;98322.34;5026687;28;20060;-81
2022/11/20 04:25:11;;;;;;;22.98;11.80;;;;;;;-1.58;67.67;98328.59;5005844;28;20125;-81
2022/11/20 04:27:36;;;;;;;16.40;9.75;;;;;;;-1.47;66.40;98329.09;5003849;28;20056;-81
2022/11/20 04:30:02;;;;;;;18.20;10.00;;;;;;;-2.25;67.77;98313.25;5024378;28;20052;-81
2022/11/20 04:32:27;;;;;;;16.98;10.70;;;;;;;-2.48;69.60;98302.88;5021224;28;20037;-81
2022/11/20 04:34:53;;;;;;;17.17;10.25;;;;;;;-1.58;67.94;98341.66;5007048;28;20114;-81
2022/11/20 04:37:18;;;;;;;19.80;11.02;;;;;;;-2.26;67.35;98312.44;5019508;28;20041;-80
2022/11/20 04:39:43;;;;;;;19.00;10.18;;;;;;;-2.23;68.95;98335.59;5023179;28;20388;-81
2022/11/20 04:42:28;;;;;;;25.45;11.55;;;;;;;-3.44;68.89;98328.00;5021670;28;20049;-81
2022/11/20 04:44:54;;;;;;;17.52;11.45;;;;;;;-4.17;69.93;98343.19;5027524;28;20033;-81
2022/11/20 04:47:20;;;;;;;20.92;11.82;;;;;;;-4.44;70.36;98327.94;5019378;28;20448;-81
2022/11/20 04:49:45;;;;;;;21.63;10.45;;;;;;;-2.96;71.18;98321.59;5021740;28;20084;-81
2022/11/20 04:52:11;;;;;;;20.63;11.63;;;;;;;-1.93;68.03;98328.53;5023602;28;20112;-81
2022/11/20 04:54:36;;;;;;;20.58;11.52;;;;;;;-1.57;66.71;98329.38;5018210;28;20045;-80
2022/11/20 04:57:02;;;;;;;17.98;10.43;;;;;;;-1.49;66.57;98344.16;5020588;28;20033;-81
2022/11/20 04:59:27;;;;;;;17.00;10.30;;;;;;;-1.43;66.56;98352.09;5020110;28;20029;-81
2022/11/20 05:01:52;;;;;;;23.52;9.95;;;;;;;-1.48;65.94;98333.50;5019908;28;20030;-81
2022/11/20 05:04:18;;;;;;;21.38;10.75;;;;;;;-1.39;65.31;98342.03;5022248;28;20073;-81
2022/11/20 05:06:45;;;;;;;16.48;10.10;;;;;;;-1.47;65.88;98329.91;5006406;28;20497;-81
2022/11/20 05:09:11;;;;;;;18.05;10.35;;;;;;;-1.39;65.43;98353.34;5006114;28;20461;-81
2022/11/20 05:11:36;;;;;;;15.60;9.43;;;;;;;-1.41;65.31;98347.47;5019060;28;20509;-80
2022/11/20 05:14:02;;;;;;;22.75;12.90;;;;;;;-3.09;66.55;98328.25;5019218;28;20061;-81
2022/11/20 05:16:27;;;;;;;21.60;12.65;;;;;;;-3.61;70.26;98332.50;5022349;28;20477;-81
2022/11/20 05:18:54;;;;;;;18.65;10.65;;;;;;;-2.54;68.79;98311.44;5002937;28;20038;-81
2022/11/20 05:21:19;;;;;;;20.20;11.00;;;;;;;-1.74;67.28;98347.09;5018669;28;20037;-80
2022/11/20 05:23:45;;;;;;;19.05;10.73;;;;;;;-1.64;66.27;98324.06;5021036;28;20501;-80
2022/11/20 05:26:21;;;;;;;18.38;10.68;;;;;;;-1.31;65.11;98332.28;5022445;28;20386;-82
2022/11/20 05:28:46;;;;;;;22.92;10.73;;;;;;;-1.24;64.78;98324.47;5022862;28;20045;-81
2022/11/20 05:31:19;;;;;;;18.45;10.40;;;;;;;-1.40;64.73;98304.63;5019662;28;20033;-81
2022/11/20 05:33:45;;;;;;;18.65;11.10;;;;;;;-1.62;64.96;98324.69;5021811;28;20387;-81
2022/11/20 05:36:12;;;;;;;22.73;13.30;;;;;;;-2.97;65.96;98331.22;5025158;28;20033;-81
2022/11/20 05:38:38;;;;;;;21.13;10.90;;;;;;;-2.87;69.66;98302.28;5027124;28;20366;-80
2022/11/20 05:41:15;;;;;;;19.55;10.10;;;;;;;-1.83;67.05;98326.44;5028976;28;20040;-81
2022/11/20 05:43:43;;;;;;;18.20;11.98;;;;;;;-3.11;66.77;98321.56;5025330;28;20017;-81
2022/11/20 05:46:10;;;;;;;22.15;13.02;;;;;;;-4.41;69.12;98323.22;5024472;28;20082;-80
2022/11/20 05:48:39;;;;;;;26.20;13.40;;;;;;;-5.49;71.55;98330.59;5019545;28;20056;-81
2022/11/20 05:51:07;;;;;;;22.25;11.60;;;;;;;-5.27;72.80;98319.59;5022521;28;20034;-80
2022/11/20 05:53:33;;;;;;;25.20;12.75;;;;;;;-5.42;72.68;98323.78;5023906;28;20434;-80
2022/11/20 05:56:01;;;;;;;23.80;11.63;;;;;;;-4.86;73.24;98320.38;5022862;28;20033;-80
2022/11/20 05:58:27;;;;;;;21.35;10.90;;;;;;;-5.43;72.92;98316.97;5008425;28;20545;-80
2022/11/20 06:00:53;;;;;;;22.92;11.38;;;;;;;-4.07;72.69;98333.38;5024358;28;20112;-80
2022/11/20 06:03:18;;;;;;;24.70;12.32;;;;;;;-2.57;69.88;98328.25;5023308;28;20171;-81
2022/11/20 06:05:44;;;;;;;24.98;11.77;;;;;;;-1.97;67.38;98335.13;5021947;28;20036;-80
2022/11/20 06:08:09;;;;;;;19.95;11.38;;;;;;;-1.98;66.69;98326.47;5022801;28;20037;-81
2022/11/20 06:10:34;;;;;;;21.50;10.65;;;;;;;-2.43;68.30;98324.88;4990384;28;20037;-81
2022/11/20 06:13:00;;;;;;;25.33;13.00;;;;;;;-4.39;67.92;98308.22;5025996;28;20236;-80
2022/11/20 06:15:25;;;;;;;19.25;11.77;;;;;;;-5.08;72.30;98332.25;5026498;28;20033;-80
2022/11/20 06:17:54;;;;;;;23.55;13.30;;;;;;;-5.00;72.56;98344.47;5023381;28;20033;-80
2022/11/20 06:20:21;;;;;;;24.23;12.95;;;;;;;-5.07;73.64;98333.91;5023191;28;20042;-81
2022/11/20 06:22:47;;;;;;;23.27;12.23;;;;;;;-5.07;74.37;98300.09;5020796;28;20033;-80
2022/11/20 06:25:13;;;;;;;20.52;11.23;;;;;;;-3.92;74.21;98303.00;5004309;28;20045;-80
2022/11/20 06:27:38;;;;;;;17.25;10.75;;;;;;;-3.06;71.40;98308.81;5017092;28;20504;-80
2022/11/20 06:30:04;;;;;;;22.58;11.07;;;;;;;-2.56;70.08;98288.09;4998695;28;20030;-80
2022/11/20 06:32:30;;;;;;;22.90;11.75;;;;;;;-1.82;67.05;98322.84;5024625;28;20490;-81
2022/11/20 06:34:55;;;;;;;20.13;11.50;;;;;;;-1.74;67.35;98320.94;5012986;28;20036;-81
2022/11/20 06:37:20;;;;;;;21.55;11.35;;;;;;;-1.84;66.70;98299.50;5025527;28;20082;-81
2022/11/20 06:39:46;;;;;;;15.90;9.65;;;;;;;-1.66;66.63;98320.03;4989634;28;20505;-81
2022/11/20 06:42:11;;;;;;;20.25;10.88;;;;;;;-1.76;66.85;98314.25;5020238;28;20029;-81
2022/11/20 06:44:36;;;;;;;22.40;11.77;;;;;;;-4.30;70.08;98303.84;5007206;28;20033;-80
2022/11/20 06:47:02;;;;;;;19.05;11.48;;;;;;;-4.58;73.57;98322.44;5004537;28;20049;-80
2022/11/20 06:49:30;;;;;;;27.35;14.02;;;;;;;-4.83;74.20;98330.47;5022363;28;20043;-80
2022/11/20 06:51:55;;;;;;;27.92;16.00;;;;;;;-5.11;75.73;98329.19;5021491;28;20030;-80
2022/11/20 06:54:20;;;;;;;24.63;13.07;;;;;;;-4.97;76.21;98324.13;5028121;28;20511;-80
2022/11/20 06:56:49;;;;;;;28.48;13.27;;;;;;;-3.40;74.45;98308.41;5000018;28;20068;-80
2022/11/20 06:59:14;;;;;;;30.60;14.80;;;;;;;-2.94;72.05;98324.84;4999413;28;20127;-81
2022/11/20 07:01:40;;;;;;;23.38;12.63;;;;;;;-2.66;71.23;98325.91;5021564;28;20773;-81
2022/11/20 07:04:05;;;;;;;26.42;13.05;;;;;;;-2.35;71.08;98300.44;5013340;28;20040;-80
2022/11/20 07:06:31;;;;;;;29.70;15.27;;;;;;;-2.23;69.45;98304.25;5021927;28;20496;-80
2022/11/20 07:08:56;;;;;;;30.38;12.95;;;;;;;-3.00;71.38;98304.66;5028542;28;20065;-80
2022/11/20 07:11:22;;;;;;;24.85;13.10;;;;;;;-2.97;72.18;98286.84;5009972;28;20087;-80
2022/11/20 07:13:48;;;;;;;26.00;13.25;;;;;;;-2.07;70.25;98311.88;5022599;28;20025;-81
2022/11/20 07:16:13;;;;;;;27.23;14.75;;;;;;;-2.70;71.95;98322.03;5024816;28;20045;-81
2022/11/20 07:18:39;;;;;;;23.48;12.15;;;;;;;-1.85;69.60;98297.06;5023511;28;20037;-80
2022/11/20 07:21:07;;;;;;;24.20;14.02;;;;;;;-1.59;68.68;98313.88;5002732;28;20409;-81
2022/11/20 07:23:32;;;;;;;26.40;14.27;;;;;;;-1.84;69.00;98320.44;5027071;28;20448;-81
2022/11/20 07:25:57;;;;;;;25.75;13.30;;;;;;;-1.66;69.05;98288.66;5024971;28;20029;-81
2022/11/20 07:28:23;;;;;;;29.27;13.13;;;;;;;-1.84;69.24;98302.13;5022853;28;20025;-81
2022/11/20 07:30:53;;;;;;;26.50;12.88;;;;;;;-1.76;69.20;98296.78;5004893;28;20064;-81
2022/11/20 07:33:18;;;;;;;29.88;14.30;;;;;;;-1.80;70.16;98321.69;5025935;28;20034;-81
2022/11/20 07:35:44;;;;;;;26.80;14.23;;;;;;;-2.21;71.75;98323.16;5027194;28;20050;-81
2022/11/20 07:38:09;;;;;;;28.48;14.75;;;;;;;-2.25;71.40;98302.78;5025452;28;20037;-81
2022/11/20 07:40:34;;;;;;;31.98;17.02;;;;;;;-3.18;72.75;98326.66;5009491;28;20057;-81
2022/11/20 07:43:00;;;;;;;32.75;16.40;;;;;;;-3.49;75.26;98320.69;5022629;28;20034;-80
2022/11/20 07:45:25;;;;;;;34.40;16.30;;;;;;;-2.99;74.64;98333.19;5026258;28;20138;-80
2022/11/20 07:47:51;;;;;;;26.17;14.57;;;;;;;-1.98;72.11;98326.47;5025007;28;20029;-80
2022/11/20 07:50:17;;;;;;;22.52;12.85;;;;;;;-1.54;71.19;98327.22;5024926;28;20046;-80
2022/11/20 07:52:42;;;;;;;27.40;14.10;;;;;;;-1.37;69.94;98327.78;5009661;28;20037;-81
2022/11/20 07:55:09;;;;;;;28.17;15.32;;;;;;;-2.46;72.84;98322.59;5025091;28;20076;-81
2022/11/20 07:57:35;;;;;;;36.95;16.90;;;;;;;-2.69;73.83;98313.22;5011243;28;20029;-80
2022/11/20 08:00:00;;;;;;;31.52;16.88;;;;;;;-3.38;75.37;98322.91;5026059;28;20030;-80
2022/11/20 08:02:25;;;;;;;35.20;15.70;;;;;;;-3.20;76.43;98330.44;5026642;28;20037;-81
2022/11/20 08:04:51;;;;;;;38.03;17.75;;;;;;;-3.09;75.97;98317.78;5011429;28;20026;-80
2022/11/20 08:07:16;;;;;;;26.92;15.07;;;;;;;-3.32;78.68;98322.19;5023847;28;20083;-81
2022/11/20 08:09:41;;;;;;;33.70;17.60;;;;;;;-3.95;76.80;98324.19;5023369;28;20030;-80
2022/11/20 08:15:04;;;;;;;39.88;19.63;;;;;;;-3.32;76.28;98337.84;5028648;28;20096;-81
2022/11/20 08:17:29;;;;;;;40.17;20.42;;;;;;;-3.90;78.41;98317.50;5026289;28;20087;-80
2022/11/20 08:19:55;;;;;;;34.78;17.73;;;;;;;-4.14;79.30;98325.41;5013768;28;20037;-79
2022/11/20 08:22:20;;;;;;;33.65;15.07;;;;;;;-3.46;78.42;98340.41;5024158;28;20056;-80
2022/11/20 08:24:46;;;;;;;58.95;26.40;;;;;;;-3.89;78.83;98334.75;5001207;28;20040;-80
2022/11/20 08:27:11;;;;;;;57.53;29.77;;;;;;;-4.39;79.75;98331.66;5030747;28;20043;-80
2022/11/20 08:29:37;;;;;;;53.80;26.50;;;;;;;-4.57;80.65;98331.06;5028474;28;20033;-81
2022/11/20 08:32:02;;;;;;;39.67;17.58;;;;;;;-4.23;82.01;98349.03;5007648;28;20041;-80
2022/11/20 08:34:28;;;;;;;47.17;20.50;;;;;;;-4.73;81.42;98355.34;5022760;28;20772;-81
2022/11/20 08:36:53;;;;;;;41.58;18.58;;;;;;;-4.28;81.69;98346.16;5005603;28;20033;-81
2022/11/20 08:39:19;;;;;;;40.72;20.05;;;;;;;-4.05;80.91;98344.44;5024732;28;20028;-80
2022/11/20 08:41:44;;;;;;;43.33;20.58;;;;;;;-4.17;80.06;98337.97;5005633;28;20131;-80
2022/11/20 08:44:09;;;;;;;46.83;22.63;;;;;;;-4.26;81.46;98357.22;5022882;28;20039;-80
2022/11/20 08:46:43;;;;;;;42.25;19.25;;;;;;;-4.80;83.16;98369.16;5025737;28;20037;-80
2022/11/20 08:49:11;;;;;;;53.85;24.23;;;;;;;-5.28;83.86;98348.31;5018382;28;20146;-80
2022/11/20 08:51:37;;;;;;;48.83;24.08;;;;;;;-5.06;84.27;98329.47;5008864;28;20041;-80
2022/11/20 08:54:04;;;;;;;47.85;23.05;;;;;;;-4.99;84.78;98351.28;5008062;28;20080;-80
2022/11/20 08:56:29;;;;;;;51.85;23.90;;;;;;;-4.94;85.56;98368.03;5018749;28;20044;-80
2022/11/20 08:58:55;;;;;;;44.10;19.00;;;;;;;-3.95;85.72;98361.50;5017928;28;20030;-81
2022/11/20 09:01:22;;;;;;;34.33;16.27;;;;;;;-2.30;78.38;98330.28;5028924;28;20584;-80
2022/11/20 09:03:47;;;;;;;31.20;16.50;;;;;;;-3.08;78.31;98355.94;5020426;28;20488;-80
2022/11/20 09:06:13;;;;;;;32.53;16.25;;;;;;;-2.99;79.23;98340.25;5016457;28;20041;-81
2022/11/20 09:08:39;;;;;;;35.65;16.88;;;;;;;-2.28;77.00;98343.97;5019519;28;20036;-82
2022/11/20 09:11:05;;;;;;;36.05;16.50;;;;;;;-1.78;74.96;98353.69;5017050;28;20409;-81
2022/11/20 09:13:32;;;;;;;32.70;15.90;;;;;;;-1.42;74.70;98319.66;5023272;28;20156;-81
2022/11/20 09:16:01;;;;;;;27.98;15.23;;;;;;;-0.90;72.98;98356.88;5017490;28;20044;-81
2022/11/20 09:18:28;;;;;;;26.25;14.52;;;;;;;-0.80;72.56;98330.34;5032157;28;20036;-81
2022/11/20 09:20:57;;;;;;;25.45;13.93;;;;;;;-0.73;72.46;98353.97;4998976;28;20754;-80
2022/11/20 09:23:23;;;;;;;28.20;14.15;;;;;;;-2.15;76.34;98332.88;5021522;28;20103;-81
2022/11/20 09:25:48;;;;;;;30.13;14.65;;;;;;;-1.00;73.77;98345.06;5000861;28;20072;-80
2022/11/20 09:28:14;;;;;;;29.25;14.48;;;;;;;-0.81;72.97;98336.59;5015696;28;21128;-81
2022/11/20 09:30:39;;;;;;;30.60;15.93;;;;;;;-2.09;74.27;98337.38;4989983;28;20037;-81
2022/11/20 09:33:05;;;;;;;34.47;18.48;;;;;;;-2.78;78.99;98341.19;5006646;28;20123;-80
2022/11/20 09:35:31;;;;;;;27.90;14.35;;;;;;;-2.03;78.33;98309.72;5021760;28;20032;-80
2022/11/20 09:37:57;;;;;;;31.75;15.70;;;;;;;-1.79;74.98;98307.59;5023381;28;20112;-80
2022/11/20 09:40:28;;;;;;;32.38;15.13;;;;;;;-2.54;78.44;98306.19;5025334;28;20098;-81
2022/11/20 09:43:07;;;;;;;29.90;14.27;;;;;;;-1.39;75.86;98313.25;5026359;28;20032;-81
2022/11/20 09:45:53;;;;;;;29.90;15.00;;;;;;;-2.05;75.88;98316.94;5025076;28;20033;-81
2022/11/20 09:48:45;;;;;;;29.15;15.32;;;;;;;-2.01;76.88;98318.97;5014182;28;20417;-81
2022/11/20 09:51:24;;;;;;;30.33;15.63;;;;;;;-2.01;76.08;98313.75;5016507;28;20037;-80
2022/11/20 09:54:06;;;;;;;26.13;14.48;;;;;;;-1.13;74.84;98324.81;5011531;28;20029;-80
2022/11/20 09:56:33;;;;;;;28.63;14.38;;;;;;;-1.03;74.67;98322.69;5023360;28;20026;-80
2022/11/20 09:59:04;;;;;;;27.10;14.32;;;;;;;-1.21;73.37;98326.75;5017132;28;20052;-80
2022/11/20 10:01:33;;;;;;;28.58;14.30;;;;;;;-1.62;75.49;98289.88;5019557;28;20052;-81
2022/11/20 10:04:10;;;;;;;28.88;14.38;;;;;;;-1.87;76.14;98315.56;5001245;28;20022;-81
2022/11/20 10:06:47;;;;;;;29.75;15.80;;;;;;;-2.95;81.43;98305.78;5020065;28;20022;-80
2022/11/20 10:09:12;;;;;;;28.15;13.68;;;;;;;-2.22;79.26;98318.91;5014245;28;20162;-80
2022/11/20 10:12:05;;;;;;;28.98;14.20;;;;;;;-1.22;75.87;98319.91;5015476;28;20481;-80
2022/11/20 10:14:47;;;;;;;36.47;18.30;;;;;;;-3.59;81.82;98281.00;5010160;28;20064;-80
2022/11/20 10:17:31;;;;;;;25.85;13.43;;;;;;;-1.84;79.53;98314.38;5023318;28;20421;-80
2022/11/20 10:20:08;;;;;;;26.88;16.05;;;;;;;-2.01;78.60;98307.72;5017505;28;20036;-80
2022/11/20 10:22:40;;;;;;;29.13;12.85;;;;;;;-1.76;78.37;98315.09;5021670;28;20021;-80
2022/11/20 10:25:33;;;;;;;31.08;15.57;;;;;;;-1.37;76.06;98300.78;5021925;28;20027;-80
2022/11/20 10:28:30;;;;;;;24.98;13.35;;;;;;;-1.26;77.45;98308.16;5022475;28;20033;-80
2022/11/20 10:31:01;;;;;;;27.70;13.88;;;;;;;-1.25;75.59;98287.06;5017906;28;20037;-80
2022/11/20 10:33:35;;;;;;;27.70;14.50;;;;;;;-1.71;77.48;98291.81;5022553;28;20061;-80
2022/11/20 10:36:26;;;;;;;26.95;13.52;;;;;;;-1.78;79.02;98305.78;5015329;28;20481;-80
2022/11/20 10:39:20;;;;;;;24.20;13.60;;;;;;;-0.81;75.78;98295.47;5017024;28;20414;-80
2022/11/20 10:41:50;;;;;;;32.95;16.50;;;;;;;-1.39;75.93;98292.31;5025958;28;20056;-80
2022/11/20 10:47:21;;;;;;;33.63;17.02;;;;;;;-2.13;77.52;98276.00;5017109;28;20585;-81
2022/11/20 10:49:51;;;;;;;27.23;14.43;;;;;;;-1.03;76.88;98293.09;5020346;28;20049;-80
2022/11/20 10:52:23;;;;;;;28.80;13.25;;;;;;;-0.46;74.22;98285.03;5018977;28;20095;-80
2022/11/20 10:55:25;;;;;;;39.00;19.45;;;;;;;-0.82;75.50;98295.66;5024150;28;20025;-80
2022/11/20 10:58:18;;;;;;;35.00;17.15;;;;;;;-1.74;77.63;98268.63;5017988;28;20381;-80
2022/11/20 11:00:44;;;;;;;24.55;12.68;;;;;;;-0.61;75.61;98266.78;5014405;28;20123;-81
2022/11/20 11:03:30;;;;;;;25.85;13.63;;;;;;;-0.26;74.00;98276.28;4994919;28;20510;-81
2022/11/20 11:05:58;;;;;;;20.77;11.95;;;;;;;-0.17;73.89;98267.25;5016630;28;20521;-80
2022/11/20 11:08:28;;;;;;;23.90;12.90;;;;;;;0.03;73.18;98258.66;5030691;28;20418;-80
2022/11/20 11:11:01;;;;;;;27.45;16.55;;;;;;;-0.11;73.23;98240.25;5027440;28;20039;-80
2022/11/20 11:13:30;;;;;;;31.40;13.45;;;;;;;-0.45;75.32;98249.94;5025472;28;20033;-80
2022/11/20 11:15:58;;;;;;;30.45;16.17;;;;;;;-1.15;75.96;98256.13;5024314;28;20021;-80
2022/11/20 11:18:34;;;;;;;27.00;14.18;;;;;;;-0.10;75.35;98249.75;5021361;28;20589;-80
2022/11/20 11:21:01;;;;;;;25.25;13.45;;;;;;;0.22;73.54;98253.47;5024153;28;20025;-81
2022/11/20 11:23:33;;;;;;;24.38;13.75;;;;;;;-0.34;75.54;98258.09;5029548;28;20033;-81
2022/11/20 11:26:00;;;;;;;29.98;16.00;;;;;;;-0.08;74.37;98246.91;5021958;28;20034;-81
2022/11/20 11:28:27;;;;;;;30.98;16.38;;;;;;;-1.13;79.03;98225.31;5003704;28;20107;-80
2022/11/20 11:30:54;;;;;;;36.03;18.40;;;;;;;-0.89;76.52;98216.22;5020121;28;20080;-80
2022/11/20 11:33:24;;;;;;;43.47;20.67;;;;;;;-1.34;79.11;98221.91;5026916;28;20042;-80
2022/11/20 11:35:52;;;;;;;26.15;15.05;;;;;;;0.01;75.82;98237.88;5013195;28;20041;-80